sensor_id;sensor_type;location;lat;lon;timestamp;temperature;humidity
15481;DHT22;7842;50.904;6.670;2022-09-09T07:19:14;19.70;99.90
15481;DHT22;7842;50.904;6.670;2022-09-09T07:21:40;19.80;99.90
15481;DHT22;7842;50.904;6.670;2022-09-09T07:24:06;19.90;99.90
15481;DHT22;7842;50.904;6.670;2022-09-09T07:26:33;20.20;99.90
15481;DHT22;7842;50.904;6.670;2022-09-09T07:28:59;19.90;99.90
15481;DHT22;7842;50.904;6.670;2022-09-09T07:31:25;19.80;99.90
15481;DHT22;7842;50.904;6.670;2022-09-09T07:33:51;19.70;99.90
15481;DHT22;7842;50.904;6.670;2022-09-09T07:36:25;19.80;99.90
15481;DHT22;7842;50.904;6.670;2022-09-09T07:38:54;20.00;99.90
15481;DHT22;7842;50.904;6.670;2022-09-09T07:41:30;20.00;99.90
15481;DHT22;7842;50.904;6.670;2022-09-09T07:43:57;19.70;99.90
15481;DHT22;7842;50.904;6.670;2022-09-09T07:46:25;19.60;99.90
15481;DHT22;7842;50.904;6.670;2022-09-09T07:48:53;19.80;99.90
15481;DHT22;7842;50.904;6.670;2022-09-09T07:51:23;19.60;99.90
15481;DHT22;7842;50.904;6.670;2022-09-09T07:53:53;19.60;99.90
15481;DHT22;7842;50.904;6.670;2022-09-09T07:56:19;19.60;99.90
15481;DHT22;7842;50.904;6.670;2022-09-09T07:58:49;19.70;99.90
15481;DHT22;7842;50.904;6.670;2022-09-09T08:01:27;19.90;99.90
15481;DHT22;7842;50.904;6.670;2022-09-09T08:04:03;19.90;99.90
15481;DHT22;7842;50.904;6.670;2022-09-09T08:06:36;19.70;99.90
15481;DHT22;7842;50.904;6.670;2022-09-09T08:09:03;19.60;99.90
15481;DHT22;7842;50.904;6.670;2022-09-09T08:11:29;19.40;99.90
15481;DHT22;7842;50.904;6.670;2022-09-09T08:13:56;19.30;99.90
15481;DHT22;7842;50.904;6.670;2022-09-09T08:16:24;19.30;99.90
15481;DHT22;7842;50.904;6.670;2022-09-09T08:18:51;19.40;99.90
15481;DHT22;7842;50.904;6.670;2022-09-09T08:21:20;19.50;99.90
15481;DHT22;7842;50.904;6.670;2022-09-09T08:23:47;19.60;99.90
15481;DHT22;7842;50.904;6.670;2022-09-09T08:26:18;19.60;99.90
15481;DHT22;7842;50.904;6.670;2022-09-09T08:28:47;19.60;99.90
15481;DHT22;7842;50.904;6.670;2022-09-09T08:31:15;19.70;99.90
15481;DHT22;7842;50.904;6.670;2022-09-09T08:33:42;19.60;99.90
15481;DHT22;7842;50.904;6.670;2022-09-09T08:36:12;19.60;99.90
15481;DHT22;7842;50.904;6.670;2022-09-09T08:38:38;19.50;99.90
15481;DHT22;7842;50.904;6.670;2022-09-09T08:49:47;19.90;99.90
15481;DHT22;7842;50.904;6.670;2022-09-09T08:58:27;20.10;99.90
15481;DHT22;7842;50.904;6.670;2022-09-09T09:01:02;20.10;99.90
15481;DHT22;7842;50.904;6.670;2022-09-09T09:11:58;19.90;99.90
15481;DHT22;7842;50.904;6.670;2022-09-09T09:14:28;19.80;99.90
15481;DHT22;7842;50.904;6.670;2022-09-09T09:17:02;19.80;99.90
15481;DHT22;7842;50.904;6.670;2022-09-09T09:19:33;19.70;99.90
15481;DHT22;7842;50.904;6.670;2022-09-09T09:24:46;19.70;99.90
15481;DHT22;7842;50.904;6.670;2022-09-09T09:27:16;19.80;99.90
15481;DHT22;7842;50.904;6.670;2022-09-09T09:29:47;19.70;99.90
15481;DHT22;7842;50.904;6.670;2022-09-09T09:32:18;19.80;99.90
15481;DHT22;7842;50.904;6.670;2022-09-09T09:34:55;20.00;99.90
15481;DHT22;7842;50.904;6.670;2022-09-09T09:37:34;20.10;99.90
15481;DHT22;7842;50.904;6.670;2022-09-09T09:40:12;20.20;99.90
15481;DHT22;7842;50.904;6.670;2022-09-09T09:42:51;20.20;99.90
15481;DHT22;7842;50.904;6.670;2022-09-09T09:45:31;20.30;99.90
15481;DHT22;7842;50.904;6.670;2022-09-09T09:48:05;20.30;99.90
15481;DHT22;7842;50.904;6.670;2022-09-09T09:50:32;20.30;99.90
15481;DHT22;7842;50.904;6.670;2022-09-09T09:53:01;20.40;99.90
15481;DHT22;7842;50.904;6.670;2022-09-09T09:55:29;20.60;99.90
15481;DHT22;7842;50.904;6.670;2022-09-09T09:58:04;20.60;99.90
15481;DHT22;7842;50.904;6.670;2022-09-09T10:00:32;20.70;99.90
15481;DHT22;7842;50.904;6.670;2022-09-09T10:03:00;20.80;99.90
15481;DHT22;7842;50.904;6.670;2022-09-09T10:05:28;20.70;99.90
15481;DHT22;7842;50.904;6.670;2022-09-09T10:08:12;20.70;99.90
15481;DHT22;7842;50.904;6.670;2022-09-09T10:19:15;20.60;99.90
15481;DHT22;7842;50.904;6.670;2022-09-09T10:21:45;20.60;99.90
15481;DHT22;7842;50.904;6.670;2022-09-09T10:33:08;20.90;99.90
15481;DHT22;7842;50.904;6.670;2022-09-09T10:51:40;20.70;99.90
15481;DHT22;7842;50.904;6.670;2022-09-09T10:56:56;20.50;99.90
15481;DHT22;7842;50.904;6.670;2022-09-09T10:59:31;20.50;99.90
15481;DHT22;7842;50.904;6.670;2022-09-09T11:02:05;20.50;99.90
15481;DHT22;7842;50.904;6.670;2022-09-09T11:04:53;20.60;99.90
15481;DHT22;7842;50.904;6.670;2022-09-09T11:07:41;20.60;99.90
